Time;durP1;ratioP1;P1;durP2;ratioP2;P2;SDS_P1;SDS_P2;PMS_P1;PMS_P2;Temp;Humidity;BMP_temperature;BMP_pressure;BME280_temperature;BME280_humidity;BME280_pressure;Samples;Min_cycle;Max_cycle;Signal;HPM_P1;HPM_P2
2022/06/22 00:02:02;;;;;;;8.48;4.93;;;;;;;28.59;53.07;98387.69;5118263;28;20031;-83
2022/06/22 00:04:48;;;;;;;9.23;5.38;;;;;;;28.57;53.46;98389.69;5122972;28;20116;-84
2022/06/22 00:07:19;;;;;;;8.38;4.88;;;;;;;28.55;53.29;98389.03;5122999;28;20058;-81
2022/06/22 00:09:46;;;;;;;7.68;5.40;;;;;;;28.55;53.44;98397.09;5123446;28;20043;-85
2022/06/22 00:12:26;;;;;;;9.80;4.80;;;;;;;28.55;53.15;98394.41;5122451;28;20035;-82
2022/06/22 00:14:54;;;;;;;10.02;5.40;;;;;;;28.53;53.36;98399.13;5123087;28;20032;-85
2022/06/22 00:17:26;;;;;;;8.43;5.50;;;;;;;28.53;53.10;98405.31;5122698;28;20051;-84
2022/06/22 00:19:59;;;;;;;9.32;5.43;;;;;;;28.52;53.23;98417.03;5125278;28;20024;-86
2022/06/22 00:22:25;;;;;;;10.75;4.90;;;;;;;28.51;53.08;98410.00;5119146;28;20027;-82
2022/06/22 00:25:37;;;;;;;10.20;5.25;;;;;;;28.51;53.41;98399.28;5115340;28;20063;-83
2022/06/22 00:28:26;;;;;;;7.65;4.95;;;;;;;28.49;53.11;98387.88;5088506;28;20049;-81
2022/06/22 00:31:15;;;;;;;10.73;5.28;;;;;;;28.50;53.21;98396.75;5117172;28;20051;-82
2022/06/22 00:34:01;;;;;;;8.05;4.88;;;;;;;28.49;53.30;98412.03;5120228;28;20047;-84
2022/06/22 00:36:28;;;;;;;;;;;;;;;28.48;53.20;98399.59;5117991;28;20032;-84
2022/06/22 00:38:53;;;;;;;8.23;5.03;;;;;;;28.47;53.40;98391.75;5114240;28;20341;-83
2022/06/22 00:41:25;;;;;;;7.70;4.85;;;;;;;28.46;52.86;98385.53;5114173;28;20024;-82
2022/06/22 00:43:54;;;;;;;8.45;4.75;;;;;;;28.46;53.01;98382.03;5114036;28;20037;-81
2022/06/22 00:46:23;;;;;;;7.70;4.47;;;;;;;28.44;52.90;98375.97;5114111;28;20027;-81
2022/06/22 00:48:52;;;;;;;10.90;5.30;;;;;;;28.44;52.86;98384.03;5114877;28;20342;-81
2022/06/22 00:51:22;;;;;;;9.02;5.00;;;;;;;28.44;53.34;98400.97;5115134;28;20106;-81
2022/06/22 00:53:58;;;;;;;8.65;4.80;;;;;;;28.41;53.18;98399.47;5113716;28;20031;-81
2022/06/22 00:56:30;;;;;;;9.60;4.88;;;;;;;28.41;52.97;98386.03;5113591;28;20048;-81
2022/06/22 00:59:18;;;;;;;7.95;4.97;;;;;;;28.39;52.90;98382.66;5113869;28;20054;-83
2022/06/22 01:02:01;;;;;;;8.70;5.10;;;;;;;28.38;53.02;98389.06;5115091;28;20047;-83
2022/06/22 01:04:35;;;;;;;8.57;4.70;;;;;;;28.38;53.07;98391.72;5115702;28;20463;-82
2022/06/22 01:07:14;;;;;;;8.15;4.82;;;;;;;28.36;53.29;98387.53;5115835;28;20092;-81
2022/06/22 01:09:43;;;;;;;9.32;5.00;;;;;;;28.36;52.92;98385.72;5113862;28;20032;-83
2022/06/22 01:12:22;;;;;;;9.48;4.60;;;;;;;28.35;53.10;98394.75;5114146;28;20031;-82
2022/06/22 01:15:09;;;;;;;8.60;4.70;;;;;;;28.34;53.22;98390.41;5115312;28;20024;-81
2022/06/22 01:17:43;;;;;;;9.30;5.22;;;;;;;28.33;53.03;98379.84;5115813;28;20031;-81
2022/06/22 01:20:22;;;;;;;10.02;5.07;;;;;;;28.33;52.90;98383.34;5114210;28;20063;-81
2022/06/22 01:23:16;;;;;;;8.88;5.25;;;;;;;28.33;52.86;98371.78;5117141;28;20457;-81
2022/06/22 01:26:03;;;;;;;9.15;4.55;;;;;;;28.31;52.88;98363.91;5117057;28;20031;-82
2022/06/22 01:28:29;;;;;;;10.13;5.38;;;;;;;28.31;52.95;98358.53;5117092;28;20476;-81
2022/06/22 01:31:02;;;;;;;8.60;5.30;;;;;;;28.30;53.08;98356.03;5118255;28;20027;-82
2022/06/22 01:33:37;;;;;;;8.68;5.05;;;;;;;28.30;53.04;98351.50;5116951;28;20123;-82
2022/06/22 01:36:12;;;;;;;7.93;5.30;;;;;;;28.31;53.06;98358.53;5118960;28;20155;-82
2022/06/22 01:38:40;;;;;;;6.82;4.20;;;;;;;28.27;52.73;98347.31;5118595;28;20464;-81
2022/06/22 01:41:30;;;;;;;8.57;5.03;;;;;;;28.27;53.22;98349.16;5117196;28;20069;-84
2022/06/22 01:44:20;;;;;;;8.23;4.65;;;;;;;28.26;53.01;98342.97;5121437;28;20472;-80
2022/06/22 01:46:52;;;;;;;8.15;4.95;;;;;;;28.26;53.02;98340.28;5122659;28;20027;-83
2022/06/22 01:49:43;;;;;;;8.20;4.85;;;;;;;28.24;53.23;98352.19;5123665;28;20042;-82
2022/06/22 01:52:47;;;;;;;9.15;4.93;;;;;;;28.26;52.85;98347.47;5120118;28;20048;-81
2022/06/22 01:55:21;;;;;;;7.55;5.30;;;;;;;28.24;52.92;98350.31;5119580;28;20030;-82
2022/06/22 01:57:56;;;;;;;9.20;5.03;;;;;;;28.25;53.40;98343.97;5119725;28;20032;-81
2022/06/22 02:00:24;;;;;;;7.10;4.93;;;;;;;28.25;53.17;98343.13;5121079;28;20062;-81
2022/06/22 02:02:49;;;;;;;7.57;4.97;;;;;;;28.24;53.14;98346.81;5121519;28;20032;-82
2022/06/22 02:05:47;;;;;;;6.97;4.43;;;;;;;28.23;52.67;98340.59;5120184;28;20468;-82
2022/06/22 02:08:36;;;;;;;8.10;4.82;;;;;;;28.22;53.24;98338.09;5119144;28;20040;-81
2022/06/22 02:11:08;;;;;;;9.43;4.95;;;;;;;28.21;52.89;98333.69;5122408;28;20079;-83
2022/06/22 02:13:59;;;;;;;9.35;5.05;;;;;;;28.20;52.83;98340.94;5121387;28;20091;-81
2022/06/22 02:16:59;;;;;;;8.60;4.43;;;;;;;28.20;52.82;98348.13;5118247;28;20059;-84
2022/06/22 02:19:28;;;;;;;9.40;5.53;;;;;;;28.18;53.19;98366.25;5115860;28;20039;-81
2022/06/22 02:21:57;;;;;;;7.30;5.03;;;;;;;28.17;53.10;98383.34;5116057;28;20031;-80
2022/06/22 02:24:27;;;;;;;9.77;5.13;;;;;;;28.18;52.90;98393.06;5121527;28;20031;-83
2022/06/22 02:27:07;;;;;;;6.90;5.07;;;;;;;28.16;52.85;98414.66;5125359;28;20019;-85
2022/06/22 02:29:40;;;;;;;8.68;4.97;;;;;;;28.17;53.19;98410.16;5124225;28;20035;-84
2022/06/22 02:32:10;;;;;;;8.18;4.68;;;;;;;28.15;52.85;98400.41;5125269;28;20042;-87
2022/06/22 02:34:38;;;;;;;7.72;4.85;;;;;;;28.15;53.07;98397.72;5126152;28;20024;-86
2022/06/22 02:37:07;;;;;;;7.43;4.95;;;;;;;28.14;53.30;98405.97;5124837;28;20045;-84
2022/06/22 02:39:37;;;;;;;8.38;5.10;;;;;;;28.13;52.93;98406.97;5122277;28;20102;-83
2022/06/22 02:44:50;;;;;;;8.45;5.22;;;;;;;28.13;52.91;98420.38;5116841;28;20100;-83
2022/06/22 02:47:42;;;;;;;8.30;5.38;;;;;;;28.12;53.11;98418.69;5116074;28;20038;-82
2022/06/22 02:50:23;;;;;;;7.32;4.57;;;;;;;28.11;53.22;98419.69;5116901;28;20043;-84
2022/06/22 02:53:17;;;;;;;10.52;5.13;;;;;;;28.09;53.18;98417.16;5115663;27;20461;-81
2022/06/22 02:55:43;;;;;;;8.73;5.28;;;;;;;28.10;52.87;98405.47;5118566;28;20052;-82
2022/06/22 02:58:28;;;;;;;8.23;5.45;;;;;;;28.09;53.00;98403.75;5122144;28;20039;-81
2022/06/22 03:00:55;;;;;;;7.85;4.90;;;;;;;28.08;53.11;98410.13;5124171;28;20096;-83
2022/06/22 03:03:21;;;;;;;10.02;5.25;;;;;;;28.07;53.06;98411.13;5120804;28;20026;-82
2022/06/22 03:05:51;;;;;;;8.77;5.10;;;;;;;28.07;53.48;98421.88;5115604;28;20032;-82
2022/06/22 03:08:18;;;;;;;7.72;5.00;;;;;;;28.06;53.04;98425.56;5116583;28;20027;-82
2022/06/22 03:10:46;;;;;;;8.10;4.75;;;;;;;28.06;53.15;98419.34;5117059;28;20073;-81
2022/06/22 03:13:29;;;;;;;8.93;5.07;;;;;;;28.05;53.15;98418.53;5116237;28;20020;-81
2022/06/22 03:15:56;;;;;;;9.90;5.63;;;;;;;28.04;53.26;98416.84;5117270;28;20031;-82
2022/06/22 03:18:26;;;;;;;7.38;4.78;;;;;;;28.05;52.82;98426.56;5117520;28;20055;-82
2022/06/22 03:21:00;;;;;;;10.30;4.95;;;;;;;28.05;53.19;98418.53;5116393;28;20236;-82
2022/06/22 03:23:57;;;;;;;9.52;5.25;;;;;;;28.05;53.04;98420.34;5117371;28;20500;-82
2022/06/22 03:26:27;;;;;;;8.07;5.10;;;;;;;28.04;53.03;98427.56;5114904;28;20070;-82
2022/06/22 03:29:22;;;;;;;7.88;4.65;;;;;;;28.03;52.82;98435.78;5114698;28;20059;-84
2022/06/22 03:31:53;;;;;;;8.73;4.75;;;;;;;28.03;53.09;98435.78;5110786;28;20112;-83
2022/06/22 03:34:26;;;;;;;8.52;4.97;;;;;;;28.03;53.06;98441.97;5114648;28;20035;-82
2022/06/22 03:37:03;;;;;;;8.05;4.80;;;;;;;28.02;53.19;98437.59;5114559;28;20528;-84
2022/06/22 03:39:32;;;;;;;8.13;4.80;;;;;;;27.99;52.99;98440.63;5114525;28;20024;-84
2022/06/22 03:42:06;;;;;;;7.40;4.80;;;;;;;27.99;52.94;98446.81;5119238;27;20326;-83
2022/06/22 03:44:43;;;;;;;8.82;4.78;;;;;;;27.98;53.26;98450.50;5116265;28;20115;-81
2022/06/22 03:47:25;;;;;;;8.77;5.15;;;;;;;27.97;53.00;98440.78;5115115;28;20452;-82
2022/06/22 03:50:09;;;;;;;10.40;5.22;;;;;;;27.96;52.72;98449.00;5116555;28;20042;-82
2022/06/22 03:53:01;;;;;;;7.57;4.70;;;;;;;27.97;52.81;98442.63;5115333;28;20024;-81
2022/06/22 03:55:36;;;;;;;7.90;4.90;;;;;;;27.96;53.13;98465.94;5114450;28;20043;-82
2022/06/22 03:58:03;;;;;;;8.27;4.63;;;;;;;27.94;52.83;98473.28;5118873;28;20125;-82
2022/06/22 04:00:33;;;;;;;8.98;5.07;;;;;;;27.95;53.05;98482.16;5114570;28;20027;-82
2022/06/22 04:02:59;;;;;;;7.25;4.60;;;;;;;27.96;52.88;98486.53;5114458;28;20439;-81
2022/06/22 04:05:31;;;;;;;7.63;4.72;;;;;;;27.94;52.78;98480.50;5114592;28;20244;-82
2022/06/22 04:07:57;;;;;;;8.25;4.35;;;;;;;27.95;52.92;98471.44;5115523;28;20032;-81
2022/06/22 04:10:46;;;;;;;8.45;4.30;;;;;;;27.93;53.12;98494.91;5115293;28;20027;-82
2022/06/22 04:13:44;;;;;;;6.43;4.30;;;;;;;27.93;52.98;98486.88;5118821;28;20028;-82
2022/06/22 04:16:16;;;;;;;7.22;4.28;;;;;;;27.92;52.98;98471.75;5095369;28;20130;-81
2022/06/22 04:18:52;;;;;;;6.78;4.20;;;;;;;27.91;52.62;98470.09;5116276;28;20594;-81
2022/06/22 04:21:25;;;;;;;9.82;4.43;;;;;;;27.90;52.77;98473.78;5114925;28;20028;-81
2022/06/22 04:24:22;;;;;;;6.90;4.40;;;;;;;27.90;52.95;98482.66;5114313;28;20028;-81
2022/06/22 04:27:06;;;;;;;7.72;3.88;;;;;;;27.91;52.85;98499.56;5117088;28;20470;-81
2022/06/22 04:29:34;;;;;;;7.28;4.15;;;;;;;27.90;52.57;98508.63;5118829;28;20089;-82
2022/06/22 04:32:26;;;;;;;6.93;4.18;;;;;;;27.88;52.83;98506.94;5118203;28;20036;-83
2022/06/22 04:35:12;;;;;;;7.20;4.68;;;;;;;27.90;52.81;98500.56;5118818;28;20134;-82
2022/06/22 04:38:06;;;;;;;7.20;3.90;;;;;;;27.87;52.73;98485.66;5117961;28;20049;-81
2022/06/22 04:40:47;;;;;;;6.10;4.13;;;;;;;27.86;52.53;98490.19;5119664;28;20027;-84
2022/06/22 04:43:14;;;;;;;5.57;3.90;;;;;;;27.87;52.25;98497.22;5120452;28;20070;-83
2022/06/22 04:45:43;;;;;;;7.18;4.15;;;;;;;27.85;52.40;98504.56;5125647;28;20057;-86
2022/06/22 04:48:15;;;;;;;6.78;3.80;;;;;;;27.85;52.60;98512.63;5124401;28;20020;-84
2022/06/22 04:50:43;;;;;;;6.88;3.95;;;;;;;27.85;52.42;98526.03;5123798;28;20028;-84
2022/06/22 04:53:28;;;;;;;6.72;3.70;;;;;;;27.83;52.50;98538.75;5124908;28;20086;-84
2022/06/22 04:56:01;;;;;;;6.43;3.38;;;;;;;27.83;52.70;98517.31;5126072;28;20113;-85
2022/06/22 04:58:46;;;;;;;6.95;3.58;;;;;;;27.83;52.75;98519.13;5122879;28;20035;-82
2022/06/22 05:01:50;;;;;;;6.35;3.88;;;;;;;27.82;52.71;98531.72;5119169;28;20028;-83
2022/06/22 05:04:21;;;;;;;6.65;4.10;;;;;;;27.80;52.52;98539.06;5105550;28;20039;-82
2022/06/22 05:06:59;;;;;;;6.38;3.60;;;;;;;27.80;52.60;98544.41;5118748;27;20504;-80
2022/06/22 05:09:38;;;;;;;6.13;3.80;;;;;;;27.80;52.43;98538.25;5117333;28;20023;-80
2022/06/22 05:12:12;;;;;;;7.55;3.90;;;;;;;27.79;52.46;98547.28;5117541;28;20046;-82
2022/06/22 05:14:39;;;;;;;5.15;3.30;;;;;;;27.80;52.72;98560.50;5117420;28;20058;-82
2022/06/22 05:17:18;;;;;;;6.80;4.22;;;;;;;27.80;52.39;98565.88;5122521;28;20088;-82
2022/06/22 05:20:21;;;;;;;6.70;3.65;;;;;;;27.80;52.39;98565.03;5121664;28;20023;-81
2022/06/22 05:22:50;;;;;;;5.82;3.63;;;;;;;27.79;52.51;98574.91;5119444;28;20039;-82
2022/06/22 05:25:17;;;;;;;6.05;3.55;;;;;;;27.80;52.52;98581.13;5120241;28;20076;-82
2022/06/22 05:28:02;;;;;;;9.05;3.47;;;;;;;27.79;52.35;98592.84;5120857;28;20019;-82
2022/06/22 05:30:42;;;;;;;6.45;3.53;;;;;;;27.78;52.53;98589.31;5111044;28;20035;-81
2022/06/22 05:33:12;;;;;;;5.47;3.45;;;;;;;27.74;52.60;98594.16;5117622;28;20376;-81
2022/06/22 05:35:48;;;;;;;6.38;3.80;;;;;;;27.76;52.33;98602.06;5118255;28;20368;-82
2022/06/22 05:38:16;;;;;;;6.50;3.38;;;;;;;27.74;52.22;98604.88;5117802;28;20118;-82
2022/06/22 05:40:44;;;;;;;6.63;3.50;;;;;;;27.75;52.49;98603.06;5122010;28;20051;-84
2022/06/22 05:43:10;;;;;;;6.57;3.65;;;;;;;27.74;52.24;98606.72;5119589;28;20387;-87
2022/06/22 05:45:46;;;;;;;6.13;3.70;;;;;;;27.72;52.63;98604.22;5120327;28;20095;-84
2022/06/22 05:48:21;;;;;;;6.78;3.75;;;;;;;27.72;52.62;98604.22;5124314;28;20038;-84
2022/06/22 05:50:55;;;;;;;8.27;3.85;;;;;;;27.69;52.55;98601.84;5122521;28;20055;-83
2022/06/22 05:53:24;;;;;;;6.97;3.70;;;;;;;27.69;52.44;98601.00;5119531;28;20045;-84
2022/06/22 05:56:02;;;;;;;8.07;3.90;;;;;;;27.69;52.50;98630.50;5117599;28;20535;-82
2022/06/22 05:58:45;;;;;;;5.32;3.75;;;;;;;27.70;52.57;98649.06;5116437;28;20030;-84
2022/06/22 06:01:24;;;;;;;4.97;3.28;;;;;;;27.68;52.31;98655.59;5116514;28;20380;-83
2022/06/22 06:04:21;;;;;;;6.40;3.78;;;;;;;27.69;52.55;98681.41;5116500;28;20027;-86
2022/06/22 06:06:48;;;;;;;7.65;3.55;;;;;;;27.69;52.48;98686.78;5116318;28;20020;-82
2022/06/22 06:09:20;;;;;;;7.47;3.92;;;;;;;27.68;52.55;98675.19;5116607;28;20054;-83
2022/06/22 06:11:50;;;;;;;4.70;3.35;;;;;;;27.67;52.47;98678.03;5116669;28;20524;-83
2022/06/22 06:14:22;;;;;;;6.28;3.78;;;;;;;27.66;52.10;98677.22;5116471;28;20034;-83
2022/06/22 06:16:52;;;;;;;6.25;3.78;;;;;;;27.66;52.16;98689.75;5116284;28;20028;-84
2022/06/22 06:19:21;;;;;;;6.50;3.45;;;;;;;27.65;52.30;98698.78;5116657;28;20019;-85
2022/06/22 06:21:52;;;;;;;6.57;3.40;;;;;;;27.65;52.48;98713.00;5120941;28;20023;-84
2022/06/22 06:24:23;;;;;;;4.88;3.47;;;;;;;27.65;52.31;98720.22;5119705;28;20039;-84
2022/06/22 06:30:03;;;;;;;7.03;3.70;;;;;;;27.63;52.48;98749.84;5120674;28;20043;-85
2022/06/22 06:32:36;;;;;;;6.30;3.80;;;;;;;27.64;52.28;98753.41;5113854;28;20032;-85
2022/06/22 06:35:27;;;;;;;6.22;3.45;;;;;;;27.64;52.54;98753.41;5119392;28;20131;-87
2022/06/22 06:38:07;;;;;;;5.68;3.80;;;;;;;27.63;52.47;98759.72;5111485;28;20130;-85
2022/06/22 06:40:43;;;;;;;5.70;3.65;;;;;;;27.63;52.42;98762.41;5121150;28;20496;-84
2022/06/22 06:43:22;;;;;;;6.07;3.85;;;;;;;27.62;52.24;98766.94;5118394;28;20042;-85
2022/06/22 06:45:52;;;;;;;8.05;3.85;;;;;;;27.59;52.37;98768.09;5119273;28;20024;-83
2022/06/22 06:48:23;;;;;;;6.65;4.00;;;;;;;27.60;52.45;98775.13;5118174;28;20047;-84
2022/06/22 06:50:53;;;;;;;6.55;3.80;;;;;;;27.60;52.11;98764.41;5117941;28;20100;-86
2022/06/22 06:53:39;;;;;;;5.93;3.63;;;;;;;27.60;52.12;98769.75;5119136;28;20028;-86
2022/06/22 06:56:33;;;;;;;6.18;3.83;;;;;;;27.61;52.17;98759.91;5120696;28;20112;-84
2022/06/22 06:59:04;;;;;;;7.75;3.88;;;;;;;27.59;52.19;98757.38;5120996;28;20085;-86
2022/06/22 07:01:34;;;;;;;7.43;4.35;;;;;;;27.58;52.51;98755.69;5122084;28;20029;-84
2022/06/22 07:04:05;;;;;;;7.28;4.05;;;;;;;27.56;52.27;98754.94;5124396;28;20024;-87
2022/06/22 07:06:32;;;;;;;7.72;4.38;;;;;;;27.55;52.55;98750.59;5124436;28;20024;-84
2022/06/22 07:09:15;;;;;;;6.93;3.83;;;;;;;27.55;52.15;98764.00;5125817;28;20027;-84
2022/06/22 07:11:51;;;;;;;6.78;3.78;;;;;;;27.55;52.45;98758.63;5125169;28;20020;-87
2022/06/22 07:14:35;;;;;;;5.75;4.03;;;;;;;27.56;51.99;98760.31;5126920;28;20043;-85
2022/06/22 07:17:06;;;;;;;5.43;3.72;;;;;;;27.55;52.15;98761.31;5121312;28;20030;-86
2022/06/22 07:19:44;;;;;;;6.10;4.10;;;;;;;27.55;52.17;98761.31;5119576;28;20035;-86
2022/06/22 07:22:32;;;;;;;6.88;3.55;;;;;;;27.54;52.45;98769.50;5116736;28;20027;-86
2022/06/22 07:25:20;;;;;;;8.48;4.32;;;;;;;27.54;52.14;98786.44;5115888;28;20033;-84
2022/06/22 07:28:01;;;;;;;7.35;4.55;;;;;;;27.56;52.15;98783.59;5118941;28;20020;-83
2022/06/22 07:30:40;;;;;;;5.50;3.63;;;;;;;27.53;52.45;98782.06;5119214;28;20047;-83
2022/06/22 07:33:25;;;;;;;4.78;3.60;;;;;;;27.52;52.38;98793.78;5117888;28;20020;-83
2022/06/22 07:35:59;;;;;;;4.80;3.90;;;;;;;27.54;52.37;98790.94;5115088;28;20349;-85
2022/06/22 07:38:53;;;;;;;4.75;3.70;;;;;;;27.53;52.29;98798.16;5114727;28;20055;-84
2022/06/22 07:41:22;;;;;;;7.20;3.92;;;;;;;27.54;52.38;98797.16;5116244;28;20039;-84
2022/06/22 07:43:55;;;;;;;6.10;4.18;;;;;;;27.54;52.27;98802.50;5115079;28;20457;-84
2022/06/22 07:46:44;;;;;;;6.43;3.78;;;;;;;27.54;52.22;98810.53;5114939;28;20024;-84
2022/06/22 07:49:18;;;;;;;6.45;3.72;;;;;;;27.53;52.37;98829.44;5117446;28;20028;-84
2022/06/22 07:51:51;;;;;;;5.93;3.97;;;;;;;27.54;52.04;98823.09;5119356;28;20039;-83
2022/06/22 07:54:53;;;;;;;6.85;4.13;;;;;;;27.52;52.09;98839.34;5116158;28;20024;-85
2022/06/22 07:57:33;;;;;;;6.50;3.97;;;;;;;27.53;52.37;98845.53;5093105;28;20059;-83
2022/06/22 08:00:06;;;;;;;6.03;4.00;;;;;;;27.52;52.05;98842.00;5119442;28;20084;-84
2022/06/22 08:02:43;;;;;;;6.47;3.75;;;;;;;27.53;52.12;98837.47;5114667;28;20075;-83
2022/06/22 08:05:14;;;;;;;6.78;4.60;;;;;;;27.51;52.18;98840.34;5114562;28;20024;-83
2022/06/22 08:08:01;;;;;;;6.25;4.22;;;;;;;27.54;52.27;98831.97;5114694;28;20016;-84
2022/06/22 08:10:36;;;;;;;5.90;3.70;;;;;;;27.55;51.98;98838.19;5114720;28;20024;-84
2022/06/22 08:13:09;;;;;;;5.93;4.07;;;;;;;27.56;52.04;98840.69;5114721;28;20031;-84
2022/06/22 08:15:39;;;;;;;6.55;3.67;;;;;;;27.58;52.25;98841.44;5114433;28;20027;-83
2022/06/22 08:18:06;;;;;;;6.72;3.88;;;;;;;27.56;52.02;98843.38;5114211;28;20016;-83
2022/06/22 08:20:34;;;;;;;6.10;4.18;;;;;;;27.58;52.00;98840.56;5114960;28;20023;-84
2022/06/22 08:23:04;;;;;;;5.95;3.80;;;;;;;27.59;51.77;98842.25;5114840;28;20081;-86
2022/06/22 08:25:31;;;;;;;6.25;4.20;;;;;;;27.58;51.77;98836.06;5117230;28;20096;-84
2022/06/22 08:27:57;;;;;;;6.00;4.43;;;;;;;27.59;51.89;98831.53;5114322;28;20019;-84
2022/06/22 08:30:22;;;;;;;6.65;3.85;;;;;;;27.59;51.97;98843.13;5118490;28;20024;-85
2022/06/22 08:33:11;;;;;;;6.13;4.07;;;;;;;27.59;51.86;98840.44;5121889;28;20027;-83
2022/06/22 08:35:43;;;;;;;6.75;4.10;;;;;;;27.59;51.70;98821.69;5118451;28;20057;-83
2022/06/22 08:38:14;;;;;;;5.40;3.90;;;;;;;27.59;51.78;98820.81;5118637;28;20410;-84
2022/06/22 08:40:56;;;;;;;4.93;3.55;;;;;;;27.64;51.42;98809.66;5118372;28;20456;-84
2022/06/22 08:43:29;;;;;;;5.05;3.80;;;;;;;27.60;51.65;98807.28;5119347;28;20042;-85
2022/06/22 08:46:03;;;;;;;5.70;3.80;;;;;;;27.61;51.88;98810.81;5119501;28;20424;-85
2022/06/22 08:48:49;;;;;;;6.35;4.07;;;;;;;27.61;51.80;98814.31;5119552;28;20023;-84
2022/06/22 08:51:33;;;;;;;4.93;3.65;;;;;;;27.64;51.43;98807.81;5118369;28;20059;-84
2022/06/22 08:54:21;;;;;;;5.93;4.10;;;;;;;27.66;51.50;98804.97;5118612;28;20124;-84
2022/06/22 08:57:21;;;;;;;6.50;4.07;;;;;;;27.69;51.27;98799.34;5117954;28;20042;-87
2022/06/22 09:00:14;;;;;;;5.68;3.85;;;;;;;27.67;51.50;98793.25;5121987;28;20020;-86
2022/06/22 09:02:57;;;;;;;5.50;3.97;;;;;;;27.70;51.52;98790.28;5122999;28;20496;-85
2022/06/22 09:05:49;;;;;;;6.88;4.65;;;;;;;27.72;51.13;98782.94;5130809;28;20023;-83
2022/06/22 09:08:23;;;;;;;4.70;3.45;;;;;;;27.73;51.19;98781.94;5106059;28;20022;-85
2022/06/22 09:10:49;;;;;;;4.43;3.58;;;;;;;27.72;50.96;98783.78;5121127;28;20118;-85
2022/06/22 09:13:33;;;;;;;5.53;3.88;;;;;;;27.75;51.06;98788.00;5123539;28;20077;-84
2022/06/22 09:15:58;;;;;;;4.93;3.65;;;;;;;27.78;51.24;98797.56;5120871;28;20028;-83
2022/06/22 09:19:02;;;;;;;4.45;3.20;;;;;;;27.77;50.99;98788.66;5124834;28;20099;-85
2022/06/22 09:21:39;;;;;;;4.72;3.60;;;;;;;27.79;50.77;98789.34;5124204;28;20365;-84
2022/06/22 09:24:26;;;;;;;5.85;3.60;;;;;;;27.81;50.96;98787.38;5123716;28;20364;-85
2022/06/22 09:27:08;;;;;;;5.07;3.67;;;;;;;27.82;51.09;98783.69;5124448;28;20020;-84
2022/06/22 09:30:02;;;;;;;5.20;3.40;;;;;;;27.83;50.56;98788.03;5127160;28;20384;-84
2022/06/22 09:33:05;;;;;;;5.22;3.47;;;;;;;27.84;50.59;98789.72;5129480;28;20488;-84
2022/06/22 09:36:08;;;;;;;5.47;3.47;;;;;;;27.86;50.71;98794.94;5128958;28;20031;-87
2022/06/22 09:39:11;;;;;;;5.00;3.65;;;;;;;27.86;50.86;98787.75;5129312;28;20141;-83
2022/06/22 09:41:54;;;;;;;4.80;3.30;;;;;;;27.87;50.72;98786.75;5121787;28;20459;-83
2022/06/22 09:44:34;;;;;;;5.43;3.67;;;;;;;27.88;50.48;98787.56;5117488;28;20553;-83
2022/06/22 09:47:09;;;;;;;5.03;3.50;;;;;;;27.88;50.90;98791.09;5116819;28;20365;-84
2022/06/22 09:49:53;;;;;;;4.63;3.30;;;;;;;27.90;50.79;98800.84;5116990;28;20023;-83
2022/06/22 09:52:36;;;;;;;4.78;3.58;;;;;;;27.90;50.42;98796.31;5116620;28;20480;-83
2022/06/22 09:58:07;;;;;;;5.43;3.63;;;;;;;27.92;50.40;98798.81;5118142;28;20047;-83
2022/06/22 10:00:41;;;;;;;4.78;3.50;;;;;;;27.94;50.50;98803.03;5117739;28;20378;-83
2022/06/22 10:03:31;;;;;;;6.70;3.42;;;;;;;27.94;50.70;98807.56;5116492;28;20069;-84
2022/06/22 10:06:15;;;;;;;5.53;3.97;;;;;;;27.95;50.71;98804.75;5116469;28;20119;-85
2022/06/22 10:09:03;;;;;;;6.18;3.65;;;;;;;27.96;50.61;98809.09;5118385;28;20038;-84
2022/06/22 10:11:47;;;;;;;4.53;3.20;;;;;;;27.98;50.57;98808.94;5117149;28;20028;-85
2022/06/22 10:14:34;;;;;;;5.43;3.33;;;;;;;27.98;50.52;98795.53;5122086;28;20066;-83
2022/06/22 10:17:24;;;;;;;4.50;3.15;;;;;;;27.99;50.46;98805.28;5122495;28;20080;-84
2022/06/22 10:19:49;;;;;;;8.50;3.20;;;;;;;28.01;50.49;98797.91;5123935;28;20032;-83
2022/06/22 10:22:15;;;;;;;4.57;3.50;;;;;;;28.02;50.49;98791.53;5118305;28;20365;-83
2022/06/22 10:25:10;;;;;;;5.45;3.72;;;;;;;28.02;50.43;98783.50;5117711;28;20023;-83
2022/06/22 10:27:49;;;;;;;5.05;3.22;;;;;;;28.05;49.99;98785.88;5111043;28;20031;-83
2022/06/22 10:30:29;;;;;;;4.85;3.30;;;;;;;28.05;50.39;98783.19;5116355;28;20120;-83
2022/06/22 10:33:36;;;;;;;3.95;2.83;;;;;;;28.07;50.02;98770.47;5116414;28;20077;-84
2022/06/22 10:36:30;;;;;;;3.70;3.03;;;;;;;28.08;50.25;98782.88;5093524;28;20035;-84
2022/06/22 10:38:58;;;;;;;4.85;3.38;;;;;;;28.11;49.91;98776.34;5116096;28;20354;-84
2022/06/22 10:47:38;;;;;;;6.22;3.20;;;;;;;28.18;49.64;98781.94;5121864;28;20356;-83
2022/06/22 10:50:03;;;;;;;3.50;2.55;;;;;;;28.19;50.08;98783.63;5120829;28;20541;-84
2022/06/22 10:53:05;;;;;;;4.43;3.03;;;;;;;28.20;49.64;98777.25;5124316;28;20024;-84
2022/06/22 10:55:54;;;;;;;4.72;3.40;;;;;;;28.22;49.91;98778.81;5097187;28;20163;-83
2022/06/22 10:58:42;;;;;;;4.47;3.00;;;;;;;28.24;49.91;98781.34;5119429;28;20457;-84
2022/06/22 11:01:38;;;;;;;3.65;3.05;;;;;;;28.26;49.60;98780.19;5118746;28;20088;-84
2022/06/22 11:04:32;;;;;;;4.13;2.60;;;;;;;28.26;49.61;98774.81;5119552;28;20031;-84
2022/06/22 11:07:31;;;;;;;4.70;3.10;;;;;;;28.27;49.76;98771.13;5120174;28;20016;-85
2022/06/22 11:10:27;;;;;;;4.30;3.05;;;;;;;28.28;49.45;98777.34;5120625;28;20483;-84
2022/06/22 11:13:22;;;;;;;3.53;2.70;;;;;;;28.29;49.46;98781.72;5120386;28;20023;-85
2022/06/22 11:16:01;;;;;;;4.70;2.83;;;;;;;28.31;49.54;98777.00;5119921;28;20027;-84
2022/06/22 11:18:41;;;;;;;5.18;2.75;;;;;;;28.32;49.39;98781.38;5119065;28;20387;-84
2022/06/22 11:21:22;;;;;;;4.45;2.80;;;;;;;28.35;49.51;98783.75;5118517;28;20051;-84
2022/06/22 11:24:06;;;;;;;4.85;3.25;;;;;;;28.36;49.66;98785.44;5116764;28;20077;-84
2022/06/22 11:33:09;;;;;;;4.88;2.60;;;;;;;28.43;49.40;98774.06;5122616;28;20104;-83
2022/06/22 11:35:48;;;;;;;3.83;2.63;;;;;;;28.45;49.34;98777.41;5124301;28;20030;-83
2022/06/22 11:38:23;;;;;;;3.65;2.47;;;;;;;28.46;49.19;98788.00;5119490;28;20027;-82
2022/06/22 11:40:56;;;;;;;5.07;3.10;;;;;;;28.49;49.35;98792.19;5120654;28;20024;-83
2022/06/22 11:43:47;;;;;;;3.97;2.60;;;;;;;28.52;49.38;98781.16;5119795;28;20096;-85
2022/06/22 11:46:30;;;;;;;3.97;2.80;;;;;;;28.52;49.11;98779.31;5122382;28;20015;-83
2022/06/22 11:49:29;;;;;;;5.18;3.13;;;;;;;28.54;49.38;98774.63;5126775;28;20035;-85
2022/06/22 11:52:04;;;;;;;3.35;2.60;;;;;;;28.55;49.37;98775.47;5127043;28;20085;-86
2022/06/22 11:54:30;;;;;;;4.57;2.85;;;;;;;28.57;49.32;98776.13;5137744;28;20012;-87
2022/06/22 11:56:56;;;;;;;4.22;2.90;;;;;;;28.57;48.94;98773.44;5136881;28;20023;-83
2022/06/22 11:59:35;;;;;;;4.30;2.63;;;;;;;28.59;49.37;98770.63;5122122;28;20020;-83
2022/06/22 12:02:29;;;;;;;4.30;2.90;;;;;;;28.60;49.28;98767.78;5123132;28;20034;-82
2022/06/22 12:05:04;;;;;;;3.80;2.60;;;;;;;28.63;48.96;98764.78;5117707;28;20085;-84
2022/06/22 12:07:54;;;;;;;4.25;2.40;;;;;;;28.66;49.06;98763.59;5118564;28;20099;-83
2022/06/22 12:10:39;;;;;;;3.95;2.67;;;;;;;28.68;49.09;98762.44;5112838;28;20115;-83
2022/06/22 12:13:11;;;;;;;3.45;2.50;;;;;;;28.68;48.87;98767.78;5115779;28;20015;-86
2022/06/22 12:15:43;;;;;;;4.60;2.67;;;;;;;28.68;49.12;98757.06;5116306;28;20020;-83
2022/06/22 12:18:29;;;;;;;4.47;3.00;;;;;;;28.71;49.06;98755.91;5095596;28;20031;-82
2022/06/22 12:21:13;;;;;;;4.20;2.85;;;;;;;28.73;48.94;98763.78;5094952;28;20085;-82
2022/06/22 12:24:07;;;;;;;4.13;2.50;;;;;;;28.75;49.02;98757.25;5096530;28;20039;-82
2022/06/22 12:26:36;;;;;;;3.55;2.47;;;;;;;28.76;48.83;98750.06;5115581;28;20016;-84
2022/06/22 12:29:23;;;;;;;4.00;2.67;;;;;;;28.80;48.78;98752.25;5117844;28;20023;-82
2022/06/22 12:32:28;;;;;;;3.75;2.35;;;;;;;28.78;48.84;98748.06;5115250;28;20111;-83
2022/06/22 12:35:18;;;;;;;4.13;2.70;;;;;;;28.81;49.02;98745.06;5104589;28;20066;-84
2022/06/22 12:37:53;;;;;;;4.07;2.67;;;;;;;28.83;49.05;98737.66;5116422;28;20042;-82
2022/06/22 12:40:27;;;;;;;3.17;2.35;;;;;;;28.85;48.92;98741.03;5116665;28;20020;-83
2022/06/22 12:42:58;;;;;;;3.67;2.40;;;;;;;28.87;48.91;98741.75;5114522;28;20027;-83
2022/06/22 12:45:49;;;;;;;3.67;2.42;;;;;;;28.89;48.58;98736.19;5115478;28;20027;-83
2022/06/22 12:48:30;;;;;;;4.70;2.53;;;;;;;28.90;49.03;98732.53;5117446;28;20015;-83
2022/06/22 12:51:16;;;;;;;3.63;2.72;;;;;;;28.91;48.77;98737.72;5120523;28;20028;-85